sensor_id;sensor_type;location;lat;lon;timestamp;pressure;altitude;pressure_sealevel;temperature;humidity
43824;BME280;29470;53.550;9.926;2023-09-19T00:02:24;99918.31;;;20.83;81.94
43824;BME280;29470;53.550;9.926;2023-09-19T00:07:28;99922.09;;;21.03;81.42
43824;BME280;29470;53.550;9.926;2023-09-19T00:12:32;99924.81;;;21.10;82.28
43824;BME280;29470;53.550;9.926;2023-09-19T00:17:35;99928.69;;;20.77;83.90
43824;BME280;29470;53.550;9.926;2023-09-19T00:22:40;99934.63;;;20.65;85.24
43824;BME280;29470;53.550;9.926;2023-09-19T00:27:45;99938.56;;;20.90;84.04
43824;BME280;29470;53.550;9.926;2023-09-19T00:32:50;99937.75;;;20.94;83.16
43824;BME280;29470;53.550;9.926;2023-09-19T00:37:56;99936.66;;;20.80;84.33
43824;BME280;29470;53.550;9.926;2023-09-19T00:43:00;99930.03;;;20.51;86.46
43824;BME280;29470;53.550;9.926;2023-09-19T00:48:04;99931.09;;;20.63;86.31
43824;BME280;29470;53.550;9.926;2023-09-19T00:53:14;99940.84;;;20.68;86.55
43824;BME280;29470;53.550;9.926;2023-09-19T00:58:21;99950.25;;;20.55;87.81
43824;BME280;29470;53.550;9.926;2023-09-19T01:03:24;99952.34;;;20.21;88.29
43824;BME280;29470;53.550;9.926;2023-09-19T01:08:27;99957.78;;;20.34;87.29
43824;BME280;29470;53.550;9.926;2023-09-19T01:13:40;99948.06;;;20.28;89.22
43824;BME280;29470;53.550;9.926;2023-09-19T01:18:50;99959.16;;;20.10;91.38
43824;BME280;29470;53.550;9.926;2023-09-19T01:24:10;99961.34;;;20.37;89.88
43824;BME280;29470;53.550;9.926;2023-09-19T01:29:33;99953.94;;;20.67;85.16
43824;BME280;29470;53.550;9.926;2023-09-19T01:34:46;99963.00;;;20.30;83.08
43824;BME280;29470;53.550;9.926;2023-09-19T01:39:52;99970.00;;;20.85;79.36
43824;BME280;29470;53.550;9.926;2023-09-19T01:45:03;99967.78;;;20.55;81.90
43824;BME280;29470;53.550;9.926;2023-09-19T01:50:17;99988.84;;;20.59;79.16
43824;BME280;29470;53.550;9.926;2023-09-19T01:55:26;99994.59;;;20.37;80.27
43824;BME280;29470;53.550;9.926;2023-09-19T02:00:32;99991.00;;;20.30;78.83
43824;BME280;29470;53.550;9.926;2023-09-19T02:05:38;99992.72;;;20.28;78.81
43824;BME280;29470;53.550;9.926;2023-09-19T02:10:41;100002.75;;;20.03;81.91
43824;BME280;29470;53.550;9.926;2023-09-19T02:15:44;100011.94;;;20.25;83.37
43824;BME280;29470;53.550;9.926;2023-09-19T02:20:49;100013.25;;;20.03;85.29
43824;BME280;29470;53.550;9.926;2023-09-19T02:25:52;100008.13;;;20.09;85.66
43824;BME280;29470;53.550;9.926;2023-09-19T02:30:56;100014.63;;;19.85;87.27
43824;BME280;29470;53.550;9.926;2023-09-19T02:36:00;100015.69;;;19.92;88.38
43824;BME280;29470;53.550;9.926;2023-09-19T02:41:05;100024.28;;;19.86;89.44
43824;BME280;29470;53.550;9.926;2023-09-19T02:46:09;100016.13;;;20.15;86.06
43824;BME280;29470;53.550;9.926;2023-09-19T02:51:15;100020.44;;;20.13;86.07
43824;BME280;29470;53.550;9.926;2023-09-19T02:56:18;100023.13;;;20.16;85.60
43824;BME280;29470;53.550;9.926;2023-09-19T03:01:21;100018.56;;;20.05;85.79
43824;BME280;29470;53.550;9.926;2023-09-19T03:06:27;100030.22;;;20.21;83.30
43824;BME280;29470;53.550;9.926;2023-09-19T03:11:32;100023.06;;;20.12;83.01
43824;BME280;29470;53.550;9.926;2023-09-19T03:16:35;100031.84;;;20.14;80.87
43824;BME280;29470;53.550;9.926;2023-09-19T03:21:40;100037.19;;;20.19;79.14
43824;BME280;29470;53.550;9.926;2023-09-19T03:26:44;100043.03;;;20.04;80.71
43824;BME280;29470;53.550;9.926;2023-09-19T03:31:49;100041.09;;;19.95;81.66
43824;BME280;29470;53.550;9.926;2023-09-19T03:36:54;100051.22;;;20.21;79.43
43824;BME280;29470;53.550;9.926;2023-09-19T03:41:58;100047.13;;;19.91;81.54
43824;BME280;29470;53.550;9.926;2023-09-19T03:47:01;100055.06;;;19.52;83.26
43824;BME280;29470;53.550;9.926;2023-09-19T03:52:06;100062.59;;;19.78;80.50
43824;BME280;29470;53.550;9.926;2023-09-19T03:57:08;100068.38;;;19.62;78.54
43824;BME280;29470;53.550;9.926;2023-09-19T04:02:11;100082.00;;;19.45;77.76
43824;BME280;29470;53.550;9.926;2023-09-19T04:07:26;100086.50;;;19.12;77.16
43824;BME280;29470;53.550;9.926;2023-09-19T04:12:30;100091.44;;;19.00;75.93
43824;BME280;29470;53.550;9.926;2023-09-19T04:17:35;100086.47;;;19.11;73.45
43824;BME280;29470;53.550;9.926;2023-09-19T04:22:39;100090.50;;;18.96;72.07
43824;BME280;29470;53.550;9.926;2023-09-19T04:27:43;100111.91;;;18.81;72.85
43824;BME280;29470;53.550;9.926;2023-09-19T04:32:46;100122.00;;;18.66;73.28
43824;BME280;29470;53.550;9.926;2023-09-19T04:37:54;100119.19;;;18.58;73.51
43824;BME280;29470;53.550;9.926;2023-09-19T04:42:58;100139.19;;;18.54;72.33
43824;BME280;29470;53.550;9.926;2023-09-19T04:48:01;100144.41;;;18.54;73.19
43824;BME280;29470;53.550;9.926;2023-09-19T04:53:06;100130.41;;;18.54;72.80
43824;BME280;29470;53.550;9.926;2023-09-19T04:58:09;100141.97;;;18.29;74.13
43824;BME280;29470;53.550;9.926;2023-09-19T05:03:12;100149.66;;;18.54;72.93
43824;BME280;29470;53.550;9.926;2023-09-19T05:08:17;100138.34;;;18.57;73.00
43824;BME280;29470;53.550;9.926;2023-09-19T05:13:20;100147.88;;;18.23;74.99
43824;BME280;29470;53.550;9.926;2023-09-19T05:18:24;100162.19;;;18.66;74.41
43824;BME280;29470;53.550;9.926;2023-09-19T05:23:28;100154.09;;;18.59;74.79
43824;BME280;29470;53.550;9.926;2023-09-19T05:28:32;100168.44;;;18.39;75.09
43824;BME280;29470;53.550;9.926;2023-09-19T05:33:39;100167.91;;;18.21;74.87
43824;BME280;29470;53.550;9.926;2023-09-19T05:38:43;100153.91;;;18.51;75.17
43824;BME280;29470;53.550;9.926;2023-09-19T05:43:49;100165.09;;;18.15;75.33
43824;BME280;29470;53.550;9.926;2023-09-19T05:48:52;100182.38;;;19.38;71.11
43824;BME280;29470;53.550;9.926;2023-09-19T05:53:56;100174.47;;;20.13;63.71
43824;BME280;29470;53.550;9.926;2023-09-19T05:58:59;100178.34;;;20.30;62.62
43824;BME280;29470;53.550;9.926;2023-09-19T06:04:02;100171.84;;;21.05;59.81
43824;BME280;29470;53.550;9.926;2023-09-19T06:09:07;100169.88;;;20.47;62.61
43824;BME280;29470;53.550;9.926;2023-09-19T06:14:11;100178.66;;;20.49;62.37
43824;BME280;29470;53.550;9.926;2023-09-19T06:19:13;100185.38;;;20.78;61.32
43824;BME280;29470;53.550;9.926;2023-09-19T06:24:17;100189.66;;;19.14;65.26
43824;BME280;29470;53.550;9.926;2023-09-19T06:29:22;100199.63;;;18.64;74.05
43824;BME280;29470;53.550;9.926;2023-09-19T06:34:26;100194.09;;;18.53;74.92
43824;BME280;29470;53.550;9.926;2023-09-19T06:39:30;100198.69;;;18.62;73.01
43824;BME280;29470;53.550;9.926;2023-09-19T06:44:33;100201.28;;;18.60;73.07
43824;BME280;29470;53.550;9.926;2023-09-19T06:49:36;100199.38;;;19.55;70.30
43824;BME280;29470;53.550;9.926;2023-09-19T06:54:40;100207.91;;;19.10;70.71
43824;BME280;29470;53.550;9.926;2023-09-19T06:59:43;100209.78;;;19.52;69.92
43824;BME280;29470;53.550;9.926;2023-09-19T07:04:46;100212.84;;;19.71;67.55
43824;BME280;29470;53.550;9.926;2023-09-19T07:09:52;100227.25;;;19.88;67.08
43824;BME280;29470;53.550;9.926;2023-09-19T07:14:55;100236.16;;;19.57;68.46
43824;BME280;29470;53.550;9.926;2023-09-19T07:19:58;100229.50;;;19.71;68.77
43824;BME280;29470;53.550;9.926;2023-09-19T07:25:03;100249.50;;;20.86;62.79
43824;BME280;29470;53.550;9.926;2023-09-19T07:30:07;100240.47;;;21.21;62.01
43824;BME280;29470;53.550;9.926;2023-09-19T07:35:10;100249.41;;;20.40;63.57
43824;BME280;29470;53.550;9.926;2023-09-19T07:40:15;100267.06;;;19.35;69.68
43824;BME280;29470;53.550;9.926;2023-09-19T07:45:18;100271.97;;;19.56;69.68
43824;BME280;29470;53.550;9.926;2023-09-19T07:50:21;100266.88;;;19.63;69.27
43824;BME280;29470;53.550;9.926;2023-09-19T07:55:26;100290.59;;;18.98;78.79
43824;BME280;29470;53.550;9.926;2023-09-19T08:00:29;100273.88;;;18.64;81.85
43824;BME280;29470;53.550;9.926;2023-09-19T08:05:32;100287.41;;;18.20;82.79
43824;BME280;29470;53.550;9.926;2023-09-19T08:10:36;100269.44;;;19.24;78.72
43824;BME280;29470;53.550;9.926;2023-09-19T08:15:43;100274.94;;;19.70;74.20
43824;BME280;29470;53.550;9.926;2023-09-19T08:20:50;100264.00;;;20.68;69.68
43824;BME280;29470;53.550;9.926;2023-09-19T08:25:59;100265.34;;;20.49;67.81
43824;BME280;29470;53.550;9.926;2023-09-19T08:31:08;100269.91;;;20.15;65.65
43824;BME280;29470;53.550;9.926;2023-09-19T08:36:12;100266.25;;;20.51;63.59
43824;BME280;29470;53.550;9.926;2023-09-19T08:41:17;100271.78;;;20.64;62.73
43824;BME280;29470;53.550;9.926;2023-09-19T08:46:25;100280.25;;;20.90;62.31
43824;BME280;29470;53.550;9.926;2023-09-19T08:51:34;100279.91;;;20.76;62.06
43824;BME280;29470;53.550;9.926;2023-09-19T08:56:44;100278.75;;;21.54;60.47
43824;BME280;29470;53.550;9.926;2023-09-19T09:01:48;100278.16;;;21.21;61.18
43824;BME280;29470;53.550;9.926;2023-09-19T09:06:55;100286.44;;;20.94;60.45
43824;BME280;29470;53.550;9.926;2023-09-19T09:12:02;100293.72;;;21.58;59.09
43824;BME280;29470;53.550;9.926;2023-09-19T09:17:05;100297.06;;;21.49;58.88
43824;BME280;29470;53.550;9.926;2023-09-19T09:22:10;100299.75;;;21.52;58.12
43824;BME280;29470;53.550;9.926;2023-09-19T09:27:14;100302.69;;;20.36;61.78
43824;BME280;29470;53.550;9.926;2023-09-19T09:32:19;100304.63;;;20.83;58.80
43824;BME280;29470;53.550;9.926;2023-09-19T09:37:23;100295.03;;;20.85;58.33
43824;BME280;29470;53.550;9.926;2023-09-19T09:42:32;100303.59;;;21.70;55.86
43824;BME280;29470;53.550;9.926;2023-09-19T09:47:41;100307.28;;;21.81;55.11
43824;BME280;29470;53.550;9.926;2023-09-19T09:52:51;100306.56;;;21.91;54.68
43824;BME280;29470;53.550;9.926;2023-09-19T09:58:17;100310.72;;;21.75;53.60
43824;BME280;29470;53.550;9.926;2023-09-19T10:03:20;100296.56;;;21.69;52.70
43824;BME280;29470;53.550;9.926;2023-09-19T10:08:24;100294.06;;;21.76;51.08
43824;BME280;29470;53.550;9.926;2023-09-19T10:13:33;100305.56;;;21.83;49.57
43824;BME280;29470;53.550;9.926;2023-09-19T10:18:41;100297.91;;;22.59;49.10
43824;BME280;29470;53.550;9.926;2023-09-19T10:23:45;100306.09;;;22.80;48.25
43824;BME280;29470;53.550;9.926;2023-09-19T10:28:50;100302.03;;;22.41;49.32
43824;BME280;29470;53.550;9.926;2023-09-19T10:33:55;100303.09;;;22.53;47.93
43824;BME280;29470;53.550;9.926;2023-09-19T10:39:00;100295.66;;;22.25;48.37
43824;BME280;29470;53.550;9.926;2023-09-19T10:44:09;100301.44;;;22.62;49.06
43824;BME280;29470;53.550;9.926;2023-09-19T10:49:13;100303.69;;;22.33;48.83
43824;BME280;29470;53.550;9.926;2023-09-19T10:54:17;100301.91;;;22.33;48.97
43824;BME280;29470;53.550;9.926;2023-09-19T10:59:24;100302.91;;;22.42;49.41
43824;BME280;29470;53.550;9.926;2023-09-19T11:04:34;100301.50;;;22.64;47.86
43824;BME280;29470;53.550;9.926;2023-09-19T11:09:46;100321.13;;;22.25;48.05
43824;BME280;29470;53.550;9.926;2023-09-19T11:14:50;100310.97;;;22.49;47.86
43824;BME280;29470;53.550;9.926;2023-09-19T11:20:22;100303.53;;;21.65;48.92
43824;BME280;29470;53.550;9.926;2023-09-19T11:25:43;100297.00;;;21.95;48.49
43824;BME280;29470;53.550;9.926;2023-09-19T11:30:52;100296.78;;;22.41;47.21
43824;BME280;29470;53.550;9.926;2023-09-19T11:35:59;100293.00;;;22.25;46.88
43824;BME280;29470;53.550;9.926;2023-09-19T11:41:37;100300.91;;;22.24;46.85
43824;BME280;29470;53.550;9.926;2023-09-19T11:46:53;100297.84;;;22.54;46.30
43824;BME280;29470;53.550;9.926;2023-09-19T11:51:59;100295.72;;;22.96;46.35
43824;BME280;29470;53.550;9.926;2023-09-19T11:57:10;100295.78;;;22.34;47.88
43824;BME280;29470;53.550;9.926;2023-09-19T12:02:40;100281.16;;;22.55;48.12
43824;BME280;29470;53.550;9.926;2023-09-19T12:07:45;100287.19;;;23.20;46.66
43824;BME280;29470;53.550;9.926;2023-09-19T12:12:48;100290.38;;;22.91;46.93
43824;BME280;29470;53.550;9.926;2023-09-19T12:18:32;100292.13;;;22.88;46.86
43824;BME280;29470;53.550;9.926;2023-09-19T12:24:12;100281.13;;;23.29;45.68
43824;BME280;29470;53.550;9.926;2023-09-19T12:30:07;100283.41;;;22.97;45.64
43824;BME280;29470;53.550;9.926;2023-09-19T12:35:29;100286.81;;;22.85;46.00
43824;BME280;29470;53.550;9.926;2023-09-19T12:40:36;100274.28;;;22.65;45.86
43824;BME280;29470;53.550;9.926;2023-09-19T12:45:42;100278.66;;;23.48;43.66
43824;BME280;29470;53.550;9.926;2023-09-19T12:51:01;100279.63;;;22.71;45.47
43824;BME280;29470;53.550;9.926;2023-09-19T12:56:08;100275.03;;;23.35;44.96
43824;BME280;29470;53.550;9.926;2023-09-19T13:01:14;100267.66;;;23.03;44.01
43824;BME280;29470;53.550;9.926;2023-09-19T13:06:35;100270.75;;;23.46;42.58
43824;BME280;29470;53.550;9.926;2023-09-19T13:11:40;100263.09;;;22.89;44.33
43824;BME280;29470;53.550;9.926;2023-09-19T13:16:55;100254.75;;;23.29;43.49
43824;BME280;29470;53.550;9.926;2023-09-19T13:22:00;100245.16;;;23.41;44.11
43824;BME280;29470;53.550;9.926;2023-09-19T13:27:04;100245.31;;;22.68;44.25
43824;BME280;29470;53.550;9.926;2023-09-19T13:32:08;100241.28;;;23.04;43.09
43824;BME280;29470;53.550;9.926;2023-09-19T13:37:14;100224.78;;;23.24;42.86
43824;BME280;29470;53.550;9.926;2023-09-19T13:42:19;100231.03;;;23.32;42.33
43824;BME280;29470;53.550;9.926;2023-09-19T13:47:23;100217.28;;;23.74;42.74
43824;BME280;29470;53.550;9.926;2023-09-19T13:52:30;100212.56;;;23.31;43.37
43824;BME280;29470;53.550;9.926;2023-09-19T13:57:33;100219.25;;;22.98;43.35
43824;BME280;29470;53.550;9.926;2023-09-19T14:02:36;100208.09;;;23.23;43.81
43824;BME280;29470;53.550;9.926;2023-09-19T14:07:42;100214.81;;;22.92;43.45
43824;BME280;29470;53.550;9.926;2023-09-19T14:12:45;100203.06;;;22.63;44.13
43824;BME280;29470;53.550;9.926;2023-09-19T14:17:49;100205.25;;;23.05;43.45
43824;BME280;29470;53.550;9.926;2023-09-19T14:22:53;100193.50;;;22.70;45.01
43824;BME280;29470;53.550;9.926;2023-09-19T14:27:56;100203.31;;;22.85;44.16
43824;BME280;29470;53.550;9.926;2023-09-19T14:32:59;100197.31;;;23.03;44.47
43824;BME280;29470;53.550;9.926;2023-09-19T14:38:05;100195.91;;;23.39;43.93
43824;BME280;29470;53.550;9.926;2023-09-19T14:43:08;100187.69;;;23.08;45.14
43824;BME280;29470;53.550;9.926;2023-09-19T14:48:10;100187.78;;;23.18;44.98
43824;BME280;29470;53.550;9.926;2023-09-19T14:53:15;100181.53;;;23.05;45.84
43824;BME280;29470;53.550;9.926;2023-09-19T14:58:18;100201.41;;;22.72;46.75
43824;BME280;29470;53.550;9.926;2023-09-19T15:03:21;100203.34;;;22.88;46.63
43824;BME280;29470;53.550;9.926;2023-09-19T15:08:25;100183.88;;;22.75;47.12
43824;BME280;29470;53.550;9.926;2023-09-19T15:13:28;100179.13;;;22.43;47.94
43824;BME280;29470;53.550;9.926;2023-09-19T15:18:31;100174.84;;;22.53;48.20
43824;BME280;29470;53.550;9.926;2023-09-19T15:23:38;100186.00;;;22.32;48.57
43824;BME280;29470;53.550;9.926;2023-09-19T15:28:41;100173.28;;;22.69;48.03
43824;BME280;29470;53.550;9.926;2023-09-19T15:33:44;100171.72;;;22.90;48.35
43824;BME280;29470;53.550;9.926;2023-09-19T15:38:57;100170.28;;;22.38;48.86
43824;BME280;29470;53.550;9.926;2023-09-19T15:44:11;100150.44;;;22.70;48.77
43824;BME280;29470;53.550;9.926;2023-09-19T15:49:18;100153.81;;;22.55;49.20
43824;BME280;29470;53.550;9.926;2023-09-19T15:54:27;100159.84;;;22.44;49.62
43824;BME280;29470;53.550;9.926;2023-09-19T15:59:35;100154.59;;;22.47;49.19
43824;BME280;29470;53.550;9.926;2023-09-19T16:04:38;100147.59;;;22.49;49.45
43824;BME280;29470;53.550;9.926;2023-09-19T16:09:43;100155.75;;;21.99;49.82
43824;BME280;29470;53.550;9.926;2023-09-19T16:14:47;100160.41;;;22.21;49.98
43824;BME280;29470;53.550;9.926;2023-09-19T16:19:50;100157.50;;;21.98;50.08
43824;BME280;29470;53.550;9.926;2023-09-19T16:24:55;100146.34;;;22.21;49.44
43824;BME280;29470;53.550;9.926;2023-09-19T16:29:57;100155.72;;;21.97;50.14
43824;BME280;29470;53.550;9.926;2023-09-19T16:35:01;100144.25;;;21.93;51.06
43824;BME280;29470;53.550;9.926;2023-09-19T16:40:07;100158.78;;;22.33;49.53
43824;BME280;29470;53.550;9.926;2023-09-19T16:45:36;100162.78;;;21.98;50.14
43824;BME280;29470;53.550;9.926;2023-09-19T16:50:43;100159.22;;;21.98;50.89
43824;BME280;29470;53.550;9.926;2023-09-19T16:55:48;100169.75;;;21.98;51.58
43824;BME280;29470;53.550;9.926;2023-09-19T17:00:51;100158.34;;;21.96;51.79
43824;BME280;29470;53.550;9.926;2023-09-19T17:05:58;100154.63;;;21.80;51.60
43824;BME280;29470;53.550;9.926;2023-09-19T17:11:03;100158.75;;;21.63;52.57
43824;BME280;29470;53.550;9.926;2023-09-19T17:16:09;100145.78;;;21.76;52.11
43824;BME280;29470;53.550;9.926;2023-09-19T17:21:17;100150.31;;;21.85;52.22
43824;BME280;29470;53.550;9.926;2023-09-19T17:26:22;100162.50;;;21.80;52.04
43824;BME280;29470;53.550;9.926;2023-09-19T17:31:26;100165.84;;;21.68;52.66
43824;BME280;29470;53.550;9.926;2023-09-19T17:36:37;100176.59;;;21.83;52.22
43824;BME280;29470;53.550;9.926;2023-09-19T17:42:22;100182.09;;;22.00;51.53
43824;BME280;29470;53.550;9.926;2023-09-19T17:47:37;100177.34;;;21.74;52.12
43824;BME280;29470;53.550;9.926;2023-09-19T17:59:42;100177.97;;;21.58;52.77
43824;BME280;29470;53.550;9.926;2023-09-19T18:04:59;100178.63;;;21.44;52.63
43824;BME280;29470;53.550;9.926;2023-09-19T18:10:29;100177.25;;;21.68;52.52
43824;BME280;29470;53.550;9.926;2023-09-19T18:15:39;100171.97;;;21.65;51.77
43824;BME280;29470;53.550;9.926;2023-09-19T18:21:00;100181.44;;;21.57;52.49
43824;BME280;29470;53.550;9.926;2023-09-19T18:26:04;100188.88;;;21.83;52.31
43824;BME280;29470;53.550;9.926;2023-09-19T18:31:09;100185.97;;;21.64;52.53
43824;BME280;29470;53.550;9.926;2023-09-19T18:36:16;100183.78;;;21.97;51.79
43824;BME280;29470;53.550;9.926;2023-09-19T18:41:23;100202.63;;;21.65;52.93
43824;BME280;29470;53.550;9.926;2023-09-19T18:46:28;100199.63;;;22.00;51.70
43824;BME280;29470;53.550;9.926;2023-09-19T18:51:32;100195.97;;;21.88;51.88
43824;BME280;29470;53.550;9.926;2023-09-19T18:56:37;100191.66;;;21.93;51.78
43824;BME280;29470;53.550;9.926;2023-09-19T19:01:42;100198.38;;;21.71;52.78
43824;BME280;29470;53.550;9.926;2023-09-19T19:06:47;100194.97;;;21.26;54.55
43824;BME280;29470;53.550;9.926;2023-09-19T19:11:53;100190.03;;;20.93;55.70
43824;BME280;29470;53.550;9.926;2023-09-19T19:16:58;100194.97;;;21.26;54.86
43824;BME280;29470;53.550;9.926;2023-09-19T19:22:08;100200.66;;;20.99;55.55
43824;BME280;29470;53.550;9.926;2023-09-19T19:27:16;100203.72;;;21.25;55.67
43824;BME280;29470;53.550;9.926;2023-09-19T19:32:21;100205.47;;;21.25;55.66
43824;BME280;29470;53.550;9.926;2023-09-19T19:37:31;100206.28;;;21.19;55.61
43824;BME280;29470;53.550;9.926;2023-09-19T19:42:34;100205.59;;;21.32;56.40
43824;BME280;29470;53.550;9.926;2023-09-19T19:47:41;100214.75;;;21.04;57.18
43824;BME280;29470;53.550;9.926;2023-09-19T19:52:44;100206.88;;;21.02;57.21
43824;BME280;29470;53.550;9.926;2023-09-19T19:57:48;100201.66;;;21.06;57.37
43824;BME280;29470;53.550;9.926;2023-09-19T20:02:52;100212.66;;;21.35;57.00
43824;BME280;29470;53.550;9.926;2023-09-19T20:07:56;100211.97;;;21.45;57.68
43824;BME280;29470;53.550;9.926;2023-09-19T20:12:58;100210.69;;;21.23;57.61
43824;BME280;29470;53.550;9.926;2023-09-19T20:18:04;100212.41;;;21.21;58.07
43824;BME280;29470;53.550;9.926;2023-09-19T20:23:09;100205.53;;;21.29;57.67
43824;BME280;29470;53.550;9.926;2023-09-19T20:28:13;100222.44;;;21.44;57.26
43824;BME280;29470;53.550;9.926;2023-09-19T20:33:18;100217.78;;;21.27;58.07
43824;BME280;29470;53.550;9.926;2023-09-19T20:38:22;100214.50;;;21.41;59.02
43824;BME280;29470;53.550;9.926;2023-09-19T20:43:25;100220.56;;;21.37;60.75
43824;BME280;29470;53.550;9.926;2023-09-19T20:48:30;100224.91;;;21.34;61.01
43824;BME280;29470;53.550;9.926;2023-09-19T20:53:35;100219.75;;;21.39;62.01
43824;BME280;29470;53.550;9.926;2023-09-19T20:58:38;100217.16;;;20.92;64.20
43824;BME280;29470;53.550;9.926;2023-09-19T21:03:43;100218.03;;;21.43;62.81
43824;BME280;29470;53.550;9.926;2023-09-19T21:08:46;100214.44;;;21.38;63.31
43824;BME280;29470;53.550;9.926;2023-09-19T21:13:51;100212.31;;;20.69;63.93
43824;BME280;29470;53.550;9.926;2023-09-19T21:18:56;100218.47;;;21.15;62.72
43824;BME280;29470;53.550;9.926;2023-09-19T21:24:01;100221.78;;;21.05;61.84
43824;BME280;29470;53.550;9.926;2023-09-19T21:29:05;100220.69;;;21.43;61.05
43824;BME280;29470;53.550;9.926;2023-09-19T21:34:09;100215.09;;;21.24;61.19
43824;BME280;29470;53.550;9.926;2023-09-19T21:39:12;100221.09;;;21.14;62.24
43824;BME280;29470;53.550;9.926;2023-09-19T21:44:15;100232.59;;;21.21;64.36
43824;BME280;29470;53.550;9.926;2023-09-19T21:49:20;100225.34;;;21.07;66.63
43824;BME280;29470;53.550;9.926;2023-09-19T21:54:22;100227.97;;;21.07;67.40
43824;BME280;29470;53.550;9.926;2023-09-19T21:59:25;100231.94;;;20.42;70.41
43824;BME280;29470;53.550;9.926;2023-09-19T22:04:30;100240.78;;;20.88;69.32
43824;BME280;29470;53.550;9.926;2023-09-19T22:09:33;100231.38;;;21.01;68.77
43824;BME280;29470;53.550;9.926;2023-09-19T22:14:36;100233.31;;;21.12;69.43
43824;BME280;29470;53.550;9.926;2023-09-19T22:19:40;100222.09;;;20.74;72.98
43824;BME280;29470;53.550;9.926;2023-09-19T22:24:46;100227.19;;;20.67;74.95
43824;BME280;29470;53.550;9.926;2023-09-19T22:29:51;100227.09;;;20.62;77.92
43824;BME280;29470;53.550;9.926;2023-09-19T22:34:57;100232.53;;;20.71;78.26
43824;BME280;29470;53.550;9.926;2023-09-19T22:40:00;100223.50;;;20.14;81.67
43824;BME280;29470;53.550;9.926;2023-09-19T22:45:12;100231.97;;;20.43;81.92
43824;BME280;29470;53.550;9.926;2023-09-19T22:50:16;100229.94;;;20.28;81.85
43824;BME280;29470;53.550;9.926;2023-09-19T22:55:21;100229.66;;;20.59;79.35
43824;BME280;29470;53.550;9.926;2023-09-19T23:00:27;100226.53;;;20.36;81.70
43824;BME280;29470;53.550;9.926;2023-09-19T23:05:35;100225.59;;;20.75;78.15
43824;BME280;29470;53.550;9.926;2023-09-19T23:10:39;100217.97;;;20.87;77.58
43824;BME280;29470;53.550;9.926;2023-09-19T23:15:45;100228.06;;;20.67;77.73
43824;BME280;29470;53.550;9.926;2023-09-19T23:20:53;100222.97;;;20.75;76.74
43824;BME280;29470;53.550;9.926;2023-09-19T23:26:06;100228.56;;;20.48;76.39
43824;BME280;29470;53.550;9.926;2023-09-19T23:31:09;100220.75;;;20.51;76.32
43824;BME280;29470;53.550;9.926;2023-09-19T23:36:13;100221.97;;;20.68;75.11
43824;BME280;29470;53.550;9.926;2023-09-19T23:41:16;100224.88;;;20.39;75.15
43824;BME280;29470;53.550;9.926;2023-09-19T23:46:22;100224.81;;;20.79;73.72
43824;BME280;29470;53.550;9.926;2023-09-19T23:51:29;100229.72;;;20.62;73.79
43824;BME280;29470;53.550;9.926;2023-09-19T23:56:32;100238.31;;;20.98;71.28
